DAL3162 KDTW-KMKE
Flight info
| Callsign | DAL3162 |
|---|---|
| Flight time | 0h 45m |
| Altitude | 34000 |
| Route | MIGGY2 GETCH DCT LYSTR DCT SUDDS DCT |
| Aircraft | A320/M-SDE3FGHIRWY/LB1 |
Departure
| Time | 2026-04-14 02:04 |
|---|---|
| Airport | Detroit Metropolitan Wayne County Airport (KDTW) |
Arrival
| Time | 2026-04-14 02:49 |
|---|---|
| Airport | General Mitchell International Airport (KMKE) |
| Time | Latitude | Longitude | Altitude | Speed | Heading |
|---|---|---|---|---|---|
| 2026-04-14 01:47 | 42.21250 | -83.35883 | 652 ft | 0 kts | 298° |
| 2026-04-14 01:52 | 42.21247 | -83.35877 | 650 ft | 2 kts | 299° |
| 2026-04-14 01:53 | 42.21237 | -83.35854 | 650 ft | 3 kts | 308° |
| 2026-04-14 01:53 | 42.21223 | -83.35835 | 652 ft | 3 kts | 329° |
| 2026-04-14 01:53 | 42.21207 | -83.35827 | 652 ft | 3 kts | 12° |
| 2026-04-14 01:53 | 42.21198 | -83.35831 | 650 ft | 1 kts | 28° |
| 2026-04-14 01:54 | 42.21196 | -83.35832 | 650 ft | 0 kts | 28° |
| 2026-04-14 01:56 | 42.21198 | -83.35831 | 651 ft | 3 kts | 28° |
| 2026-04-14 01:56 | 42.21241 | -83.35800 | 650 ft | 8 kts | 28° |
| 2026-04-14 01:57 | 42.21285 | -83.35769 | 651 ft | 6 kts | 28° |
| 2026-04-14 01:57 | 42.21295 | -83.35762 | 650 ft | 0 kts | 28° |
| 2026-04-14 01:57 | 42.21304 | -83.35755 | 650 ft | 9 kts | 27° |
| 2026-04-14 01:57 | 42.21327 | -83.35743 | 650 ft | 2 kts | 14° |
| 2026-04-14 01:58 | 42.21405 | -83.35688 | 650 ft | 16 kts | 27° |
| 2026-04-14 01:58 | 42.21477 | -83.35642 | 650 ft | 8 kts | 15° |
| 2026-04-14 01:58 | 42.21526 | -83.35660 | 650 ft | 7 kts | 317° |
| 2026-04-14 01:58 | 42.21541 | -83.35714 | 649 ft | 6 kts | 280° |
| 2026-04-14 01:59 | 42.21544 | -83.35766 | 649 ft | 9 kts | 272° |
| 2026-04-14 01:59 | 42.21539 | -83.35893 | 649 ft | 3 kts | 268° |
| 2026-04-14 01:59 | 42.21559 | -83.35958 | 649 ft | 14 kts | 322° |
| 2026-04-14 01:59 | 42.21647 | -83.35915 | 649 ft | 14 kts | 31° |
| 2026-04-14 02:00 | 42.21722 | -83.35855 | 647 ft | 11 kts | 29° |
| 2026-04-14 02:00 | 42.21765 | -83.35825 | 647 ft | 10 kts | 27° |
| 2026-04-14 02:00 | 42.21822 | -83.35785 | 647 ft | 8 kts | 27° |
| 2026-04-14 02:00 | 42.21939 | -83.35704 | 649 ft | 25 kts | 27° |
| 2026-04-14 02:01 | 42.22096 | -83.35595 | 649 ft | 25 kts | 27° |
| 2026-04-14 02:01 | 42.22200 | -83.35521 | 650 ft | 25 kts | 28° |
| 2026-04-14 02:01 | 42.22351 | -83.35401 | 651 ft | 25 kts | 32° |
| 2026-04-14 02:01 | 42.22503 | -83.35280 | 650 ft | 26 kts | 29° |
| 2026-04-14 02:02 | 42.22661 | -83.35164 | 650 ft | 25 kts | 30° |
| 2026-04-14 02:02 | 42.22809 | -83.35059 | 649 ft | 23 kts | 26° |
| 2026-04-14 02:02 | 42.22949 | -83.34965 | 650 ft | 21 kts | 27° |
| 2026-04-14 02:02 | 42.23058 | -83.34910 | 651 ft | 14 kts | 346° |
| 2026-04-14 02:03 | 42.23094 | -83.35009 | 650 ft | 13 kts | 253° |
| 2026-04-14 02:03 | 42.23015 | -83.35092 | 650 ft | 16 kts | 210° |
| 2026-04-14 02:03 | 42.22908 | -83.35158 | 649 ft | 18 kts | 207° |
| 2026-04-14 02:03 | 42.22730 | -83.35291 | 651 ft | 64 kts | 209° |
| 2026-04-14 02:04 | 42.22031 | -83.35799 | 651 ft | 157 kts | 208° |
| 2026-04-14 02:04 | 42.20952 | -83.36590 | 1165 ft | 188 kts | 208° |
| 2026-04-14 02:04 | 42.19660 | -83.37323 | 1808 ft | 219 kts | 205° |
| 2026-04-14 02:04 | 42.18468 | -83.38726 | 2600 ft | 238 kts | 234° |
| 2026-04-14 02:05 | 42.17627 | -83.40690 | 3495 ft | 248 kts | 241° |
| 2026-04-14 02:05 | 42.16879 | -83.42804 | 3900 ft | 251 kts | 243° |
| 2026-04-14 02:05 | 42.16172 | -83.44948 | 3957 ft | 249 kts | 244° |
| 2026-04-14 02:05 | 42.15476 | -83.47072 | 3967 ft | 247 kts | 244° |
| 2026-04-14 02:06 | 42.14773 | -83.49187 | 4022 ft | 250 kts | 243° |
| 2026-04-14 02:06 | 42.14062 | -83.51390 | 4943 ft | 255 kts | 250° |
| 2026-04-14 02:06 | 42.13776 | -83.53739 | 6115 ft | 263 kts | 266° |
| 2026-04-14 02:06 | 42.14119 | -83.56198 | 6613 ft | 272 kts | 287° |
| 2026-04-14 02:07 | 42.15139 | -83.58393 | 6856 ft | 278 kts | 303° |
| 2026-04-14 02:07 | 42.16333 | -83.60451 | 6950 ft | 278 kts | 303° |
| 2026-04-14 02:07 | 42.17506 | -83.62506 | 6969 ft | 278 kts | 302° |
| 2026-04-14 02:07 | 42.18680 | -83.64583 | 7569 ft | 281 kts | 302° |
| 2026-04-14 02:08 | 42.19869 | -83.66694 | 8771 ft | 282 kts | 302° |
| 2026-04-14 02:08 | 42.21106 | -83.68778 | 9885 ft | 289 kts | 310° |
| 2026-04-14 02:08 | 42.22783 | -83.70434 | 10506 ft | 317 kts | 332° |
| 2026-04-14 02:08 | 42.25007 | -83.71249 | 11099 ft | 341 kts | 345° |
| 2026-04-14 02:09 | 42.27361 | -83.71870 | 12006 ft | 347 kts | 345° |
| 2026-04-14 02:09 | 42.29742 | -83.72480 | 13004 ft | 350 kts | 345° |
| 2026-04-14 02:09 | 42.32113 | -83.73087 | 13976 ft | 352 kts | 345° |
| 2026-04-14 02:09 | 42.34556 | -83.73722 | 14857 ft | 356 kts | 344° |
| 2026-04-14 02:10 | 42.36967 | -83.74362 | 15659 ft | 360 kts | 343° |
| 2026-04-14 02:10 | 42.39466 | -83.75035 | 16487 ft | 364 kts | 343° |
| 2026-04-14 02:10 | 42.41946 | -83.75704 | 17291 ft | 369 kts | 342° |
| 2026-04-14 02:10 | 42.44480 | -83.76389 | 18106 ft | 373 kts | 342° |
| 2026-04-14 02:11 | 42.47047 | -83.77081 | 18823 ft | 378 kts | 342° |
| 2026-04-14 02:11 | 42.49629 | -83.77775 | 19529 ft | 381 kts | 342° |
| 2026-04-14 02:11 | 42.52256 | -83.78476 | 20248 ft | 385 kts | 342° |
| 2026-04-14 02:11 | 42.54886 | -83.79177 | 20970 ft | 388 kts | 342° |
| 2026-04-14 02:12 | 42.57544 | -83.79887 | 21690 ft | 392 kts | 341° |
| 2026-04-14 02:12 | 42.60237 | -83.80610 | 22400 ft | 396 kts | 341° |
| 2026-04-14 02:12 | 42.62950 | -83.81344 | 23106 ft | 399 kts | 341° |
| 2026-04-14 02:12 | 42.65658 | -83.82077 | 23745 ft | 403 kts | 341° |
| 2026-04-14 02:13 | 42.68419 | -83.82823 | 24315 ft | 406 kts | 341° |
| 2026-04-14 02:13 | 42.71196 | -83.83572 | 24883 ft | 409 kts | 341° |
| 2026-04-14 02:13 | 42.73992 | -83.84326 | 25437 ft | 410 kts | 341° |
| 2026-04-14 02:13 | 42.76702 | -83.85424 | 25969 ft | 404 kts | 330° |
| 2026-04-14 02:14 | 42.79214 | -83.87174 | 26513 ft | 398 kts | 321° |
| 2026-04-14 02:14 | 42.81384 | -83.89447 | 26994 ft | 392 kts | 311° |
| 2026-04-14 02:14 | 42.83341 | -83.92048 | 27499 ft | 394 kts | 310° |
| 2026-04-14 02:14 | 42.85246 | -83.94696 | 27942 ft | 394 kts | 304° |
| 2026-04-14 02:15 | 42.86657 | -83.97842 | 28412 ft | 390 kts | 289° |
| 2026-04-14 02:15 | 42.87331 | -84.01396 | 28822 ft | 389 kts | 276° |
| 2026-04-14 02:15 | 42.87716 | -84.05070 | 29274 ft | 392 kts | 276° |
| 2026-04-14 02:15 | 42.88099 | -84.08761 | 29725 ft | 394 kts | 276° |
| 2026-04-14 02:16 | 42.88481 | -84.12460 | 30142 ft | 397 kts | 276° |
| 2026-04-14 02:16 | 42.88867 | -84.16184 | 30502 ft | 399 kts | 276° |
| 2026-04-14 02:16 | 42.89263 | -84.19972 | 30854 ft | 401 kts | 276° |
| 2026-04-14 02:16 | 42.89660 | -84.23751 | 31207 ft | 403 kts | 276° |
| 2026-04-14 02:17 | 42.90051 | -84.27511 | 31545 ft | 405 kts | 276° |
| 2026-04-14 02:17 | 42.90445 | -84.31323 | 31811 ft | 408 kts | 276° |
| 2026-04-14 02:17 | 42.90842 | -84.35179 | 32075 ft | 411 kts | 276° |
| 2026-04-14 02:17 | 42.91237 | -84.39038 | 32510 ft | 410 kts | 276° |
| 2026-04-14 02:18 | 42.91631 | -84.42898 | 32982 ft | 408 kts | 276° |
| 2026-04-14 02:18 | 42.92018 | -84.46709 | 33451 ft | 406 kts | 276° |
| 2026-04-14 02:18 | 42.92401 | -84.50497 | 33887 ft | 405 kts | 276° |
| 2026-04-14 02:18 | 42.92790 | -84.54334 | 33994 ft | 403 kts | 276° |
| 2026-04-14 02:19 | 42.93561 | -84.61869 | 34005 ft | 402 kts | 276° |
| 2026-04-14 02:19 | 42.94326 | -84.69422 | 33990 ft | 402 kts | 276° |
| 2026-04-14 02:20 | 42.95070 | -84.76965 | 33991 ft | 402 kts | 276° |
| 2026-04-14 02:20 | 42.95811 | -84.84525 | 33977 ft | 402 kts | 276° |
| 2026-04-14 02:21 | 42.96554 | -84.92082 | 33977 ft | 402 kts | 276° |
| 2026-04-14 02:21 | 42.97294 | -84.99628 | 33960 ft | 402 kts | 276° |
| 2026-04-14 02:22 | 42.98028 | -85.07203 | 33959 ft | 403 kts | 276° |
| 2026-04-14 02:22 | 42.98388 | -85.10945 | 33826 ft | 397 kts | 276° |
| 2026-04-14 02:22 | 42.98741 | -85.14663 | 33543 ft | 394 kts | 276° |
| 2026-04-14 02:23 | 42.99099 | -85.18370 | 33278 ft | 393 kts | 276° |
| 2026-04-14 02:23 | 42.99454 | -85.22068 | 33013 ft | 394 kts | 276° |
| 2026-04-14 02:23 | 42.99811 | -85.25796 | 32755 ft | 395 kts | 276° |
| 2026-04-14 02:23 | 43.00159 | -85.29529 | 32483 ft | 396 kts | 276° |
| 2026-04-14 02:24 | 43.00503 | -85.33255 | 32233 ft | 397 kts | 276° |
| 2026-04-14 02:24 | 43.00850 | -85.37018 | 31978 ft | 397 kts | 276° |
| 2026-04-14 02:24 | 43.01198 | -85.40759 | 31728 ft | 397 kts | 276° |
| 2026-04-14 02:24 | 43.01544 | -85.44482 | 31466 ft | 397 kts | 276° |
| 2026-04-14 02:25 | 43.01890 | -85.48201 | 31214 ft | 397 kts | 276° |
| 2026-04-14 02:25 | 43.02241 | -85.51956 | 30968 ft | 396 kts | 276° |
| 2026-04-14 02:25 | 43.02586 | -85.55672 | 30746 ft | 394 kts | 276° |
| 2026-04-14 02:25 | 43.02932 | -85.59410 | 30489 ft | 393 kts | 276° |
| 2026-04-14 02:26 | 43.03273 | -85.63101 | 30250 ft | 391 kts | 276° |
| 2026-04-14 02:26 | 43.03607 | -85.66787 | 30011 ft | 390 kts | 276° |
| 2026-04-14 02:26 | 43.03939 | -85.70457 | 29740 ft | 388 kts | 276° |
| 2026-04-14 02:26 | 43.04269 | -85.74088 | 29461 ft | 386 kts | 276° |
| 2026-04-14 02:27 | 43.04598 | -85.77717 | 29175 ft | 385 kts | 276° |
| 2026-04-14 02:27 | 43.04925 | -85.81356 | 28914 ft | 383 kts | 276° |
| 2026-04-14 02:27 | 43.05249 | -85.84979 | 28642 ft | 381 kts | 276° |
| 2026-04-14 02:27 | 43.05571 | -85.88549 | 28378 ft | 380 kts | 276° |
| 2026-04-14 02:28 | 43.05888 | -85.92109 | 28115 ft | 378 kts | 276° |
| 2026-04-14 02:28 | 43.06207 | -85.95713 | 27855 ft | 377 kts | 276° |
| 2026-04-14 02:28 | 43.06520 | -85.99261 | 27589 ft | 375 kts | 276° |
| 2026-04-14 02:28 | 43.06831 | -86.02800 | 27335 ft | 374 kts | 276° |
| 2026-04-14 02:29 | 43.07135 | -86.06269 | 27085 ft | 372 kts | 275° |
| 2026-04-14 02:29 | 43.07440 | -86.09776 | 26834 ft | 371 kts | 275° |
| 2026-04-14 02:29 | 43.07747 | -86.13331 | 26579 ft | 369 kts | 275° |
| 2026-04-14 02:29 | 43.08041 | -86.16761 | 26338 ft | 368 kts | 275° |
| 2026-04-14 02:30 | 43.08341 | -86.20230 | 26097 ft | 368 kts | 275° |
| 2026-04-14 02:30 | 43.08644 | -86.23722 | 25846 ft | 368 kts | 275° |
| 2026-04-14 02:30 | 43.08945 | -86.27242 | 25606 ft | 367 kts | 275° |
| 2026-04-14 02:30 | 43.09241 | -86.30705 | 25374 ft | 366 kts | 275° |
| 2026-04-14 02:31 | 43.09539 | -86.34154 | 25140 ft | 364 kts | 275° |
| 2026-04-14 02:31 | 43.09831 | -86.37533 | 24907 ft | 363 kts | 275° |
| 2026-04-14 02:31 | 43.10122 | -86.40959 | 24674 ft | 361 kts | 275° |
| 2026-04-14 02:31 | 43.10408 | -86.44376 | 24439 ft | 360 kts | 275° |
| 2026-04-14 02:32 | 43.10689 | -86.47754 | 24212 ft | 359 kts | 275° |
| 2026-04-14 02:32 | 43.10973 | -86.51156 | 23981 ft | 357 kts | 275° |
| 2026-04-14 02:32 | 43.11256 | -86.54534 | 23759 ft | 356 kts | 275° |
| 2026-04-14 02:32 | 43.11534 | -86.57871 | 23549 ft | 355 kts | 274° |
| 2026-04-14 02:33 | 43.11810 | -86.61217 | 23049 ft | 350 kts | 274° |
| 2026-04-14 02:33 | 43.12079 | -86.64516 | 22463 ft | 347 kts | 274° |
| 2026-04-14 02:33 | 43.12345 | -86.67783 | 21887 ft | 344 kts | 274° |
| 2026-04-14 02:34 | 43.12873 | -86.74231 | 20829 ft | 337 kts | 274° |
| 2026-04-14 02:34 | 43.13132 | -86.77413 | 20313 ft | 335 kts | 274° |
| 2026-04-14 02:34 | 43.13387 | -86.80561 | 19788 ft | 332 kts | 274° |
| 2026-04-14 02:34 | 43.13640 | -86.83678 | 19292 ft | 329 kts | 274° |
| 2026-04-14 02:35 | 43.13892 | -86.86784 | 18802 ft | 327 kts | 274° |
| 2026-04-14 02:35 | 43.14141 | -86.89873 | 18348 ft | 324 kts | 274° |
| 2026-04-14 02:35 | 43.14385 | -86.92928 | 18108 ft | 324 kts | 274° |
| 2026-04-14 02:35 | 43.14627 | -86.95992 | 17842 ft | 324 kts | 274° |
| 2026-04-14 02:36 | 43.14871 | -86.99082 | 17578 ft | 324 kts | 274° |
| 2026-04-14 02:36 | 43.15110 | -87.02137 | 17314 ft | 322 kts | 272° |
| 2026-04-14 02:36 | 43.15122 | -87.05169 | 17059 ft | 319 kts | 266° |
| 2026-04-14 02:36 | 43.15051 | -87.08213 | 16800 ft | 318 kts | 266° |
| 2026-04-14 02:37 | 43.14980 | -87.11213 | 16275 ft | 315 kts | 266° |
| 2026-04-14 02:37 | 43.14907 | -87.14241 | 15435 ft | 323 kts | 267° |
| 2026-04-14 02:37 | 43.14832 | -87.17360 | 14595 ft | 329 kts | 267° |
| 2026-04-14 02:37 | 43.14756 | -87.20518 | 13766 ft | 334 kts | 267° |
| 2026-04-14 02:38 | 43.14678 | -87.23720 | 12848 ft | 338 kts | 267° |
| 2026-04-14 02:38 | 43.14599 | -87.26910 | 11943 ft | 340 kts | 266° |
| 2026-04-14 02:38 | 43.14521 | -87.30123 | 11454 ft | 330 kts | 266° |
| 2026-04-14 02:38 | 43.14448 | -87.33180 | 11313 ft | 311 kts | 266° |
| 2026-04-14 02:39 | 43.14378 | -87.36076 | 11178 ft | 295 kts | 266° |
| 2026-04-14 02:39 | 43.14312 | -87.38795 | 10867 ft | 286 kts | 266° |
| 2026-04-14 02:39 | 43.14249 | -87.41519 | 10446 ft | 282 kts | 266° |
| 2026-04-14 02:39 | 43.14189 | -87.44170 | 10076 ft | 277 kts | 266° |
| 2026-04-14 02:40 | 43.14130 | -87.46786 | 9704 ft | 272 kts | 266° |
| 2026-04-14 02:40 | 43.14074 | -87.49349 | 9321 ft | 266 kts | 266° |
| 2026-04-14 02:40 | 43.14018 | -87.51856 | 8963 ft | 261 kts | 265° |
| 2026-04-14 02:40 | 43.13961 | -87.54306 | 8616 ft | 255 kts | 265° |
| 2026-04-14 02:41 | 43.13905 | -87.56680 | 8273 ft | 250 kts | 265° |
| 2026-04-14 02:41 | 43.13851 | -87.59017 | 7944 ft | 244 kts | 264° |
| 2026-04-14 02:41 | 43.13798 | -87.61317 | 7609 ft | 238 kts | 264° |
| 2026-04-14 02:41 | 43.13743 | -87.63578 | 7305 ft | 233 kts | 263° |
| 2026-04-14 02:42 | 43.13688 | -87.65765 | 6991 ft | 228 kts | 263° |
| 2026-04-14 02:42 | 43.13632 | -87.67922 | 6693 ft | 223 kts | 262° |
| 2026-04-14 02:42 | 43.13579 | -87.70022 | 6397 ft | 218 kts | 262° |
| 2026-04-14 02:42 | 43.13526 | -87.72074 | 6097 ft | 213 kts | 261° |
| 2026-04-14 02:43 | 43.13476 | -87.74046 | 5815 ft | 209 kts | 261° |
| 2026-04-14 02:43 | 43.13426 | -87.76006 | 5540 ft | 204 kts | 261° |
| 2026-04-14 02:43 | 43.13376 | -87.77939 | 5271 ft | 200 kts | 260° |
| 2026-04-14 02:43 | 43.13327 | -87.79805 | 4996 ft | 196 kts | 260° |
| 2026-04-14 02:44 | 43.13279 | -87.81664 | 4745 ft | 193 kts | 260° |
| 2026-04-14 02:44 | 43.13232 | -87.83483 | 4485 ft | 189 kts | 260° |
| 2026-04-14 02:44 | 43.13095 | -87.85236 | 4223 ft | 179 kts | 244° |
| 2026-04-14 02:44 | 43.12317 | -87.86437 | 3995 ft | 171 kts | 207° |
| 2026-04-14 02:45 | 43.11133 | -87.86641 | 3764 ft | 176 kts | 184° |
| 2026-04-14 02:45 | 43.09931 | -87.86683 | 3527 ft | 169 kts | 192° |
| 2026-04-14 02:45 | 43.08785 | -87.86888 | 3305 ft | 165 kts | 194° |
| 2026-04-14 02:45 | 43.07657 | -87.87109 | 3084 ft | 164 kts | 194° |
| 2026-04-14 02:46 | 43.06527 | -87.87325 | 2855 ft | 162 kts | 193° |
| 2026-04-14 02:46 | 43.05448 | -87.87532 | 2604 ft | 152 kts | 192° |
| 2026-04-14 02:46 | 43.04430 | -87.87753 | 2310 ft | 145 kts | 193° |
| 2026-04-14 02:46 | 43.03472 | -87.87954 | 2181 ft | 134 kts | 191° |
| 2026-04-14 02:47 | 43.02597 | -87.88129 | 2056 ft | 120 kts | 191° |
| 2026-04-14 02:47 | 43.02072 | -87.88208 | 2048 ft | 110 kts | 190° |
| 2026-04-14 02:47 | 43.01323 | -87.88334 | 1919 ft | 106 kts | 189° |
| 2026-04-14 02:47 | 43.00592 | -87.88475 | 1731 ft | 108 kts | 189° |
| 2026-04-14 02:48 | 42.99861 | -87.88611 | 1585 ft | 105 kts | 188° |
| 2026-04-14 02:48 | 42.99115 | -87.88750 | 1403 ft | 114 kts | 187° |
| 2026-04-14 02:48 | 42.98317 | -87.88901 | 1282 ft | 114 kts | 185° |
| 2026-04-14 02:48 | 42.97484 | -87.89045 | 1151 ft | 122 kts | 185° |
| 2026-04-14 02:49 | 42.96630 | -87.89182 | 986 ft | 120 kts | 188° |
| 2026-04-14 02:49 | 42.95795 | -87.89319 | 812 ft | 117 kts | 183° |
| 2026-04-14 02:49 | 42.95037 | -87.89438 | 676 ft | 103 kts | 187° |
| 2026-04-14 02:49 | 42.94609 | -87.89638 | 680 ft | 17 kts | 210° |
| 2026-04-14 02:50 | 42.94601 | -87.89640 | 681 ft | 0 kts | 191° |
| 2026-04-14 02:50 | 42.94569 | -87.89657 | 681 ft | 11 kts | 207° |
| 2026-04-14 02:50 | 42.94533 | -87.89789 | 679 ft | 19 kts | 290° |
| 2026-04-14 02:51 | 42.94553 | -87.89865 | 681 ft | 0 kts | 302° |
| 2026-04-14 02:51 | 42.94601 | -87.89887 | 681 ft | 18 kts | 3° |
| 2026-04-14 02:51 | 42.94622 | -87.89885 | 681 ft | 0 kts | 360° |